Historyczne dane pomiarowe

Dodano dane terminowe – wersja testowa.

Dane z okresu 1951-2019

Wersja bazy: 1.34 [2019-03-16, lista zmian], aktualizacja planowana na 2019-04-15

Dane meteo z obszaru Polski uzyskane na podstawie danych udostępnionych przez Instytut Meteorologii i Gospodarki Wodnej – Państwowy Instytut Badawczy.

 

Wybierz Datę:    

       

TemperaturaWilgotnośćWiatrCiśnienieOpadyŚniegCzas trwania zjawisk
 Stacja t tx tn tng RH VA  wxwx mslp ppp RRR   cm mm wxwxwxwxwxwxwx
1959-10-10 6.0 14.1 0.5- 77.3- 0.0 0.7---- 0.0------------
1959-10-09 7.1 14.7 4.0- 77.0- 0.0 0.7---- 0.0------------
1959-10-08 9.6 18.1 4.5- 63.3- 0.7 0.7---- 0.0------------
1959-10-07 8.5 16.5 0.7- 59.3- 0.0 0.7---- 0.0------------
1959-10-06 4.8 12.6 -2.7- 66.0- 0.0 0.7---- 0.0------------
1959-10-05 2.8 9.0 -4.2- 62.5- 0.0 1.3---- 0.0------------
1959-10-04 5.1 12.4 3.2- 91.8- 2.7 0.0---- 0.5------------
1959-10-03 13.4 20.3 7.0- 56.8- 4.3 1.0---- 0.0------------
1959-10-02 12.4 20.6 4.2- 52.5- 0.0 1.0---- 0.0------------
1959-10-01 7.6 15.6 1.5- 70.5- 0.0 0.7---- 0.0------------
1959-09-30 4.5 11.1 0.5- 82.5- 4.0 0.3---- 0.0------------
1959-09-29 6.0 10.6 0.5- 79.8- 4.3 0.3---- 0.0------------
1959-09-28 6.6 11.4 5.2- 84.5- 7.7 2.0---- 1.5------------
1959-09-27 13.1 19.3 9.5- 59.0- 2.7 1.7---- 0.0------------
1959-09-26 11.9 18.3 2.5- 66.3- 0.7 1.0---- 0.0------------
1959-09-25 6.7 13.1 4.2- 82.5- 1.7 0.7---- 1.2------------
1959-09-24 12.0 15.3 9.5- 72.0- 4.3 1.7---- 0.0------------
1959-09-23 14.2 18.6 12.5- 63.5- 2.7 2.7---- 0.0------------
1959-09-22 15.9 20.6 14.0- 63.5- 4.3 3.3---- 0.0------------
1959-09-21 16.3 21.6 4.4- 57.3- 0.0 3.3---- 0.0------------
1959-09-20 10.2 15.3 6.7- 82.8- 5.3 1.0---- 0.0------------
1959-09-19 10.5 17.6 4.0- 59.8- 2.7 0.7---- 0.0------------
1959-09-18 8.6 15.1 3.0- 60.5- 1.0 1.0---- 0.0------------
1959-09-17 7.8 14.3 2.5- 62.8- 1.3 1.0---- 0.0------------
1959-09-16 13.6 18.6 8.3- 67.8- 2.7 1.7---- 0.0------------
1959-09-15 12.0 20.1 5.2- 70.8- 0.0 0.7---- 0.0------------
1959-09-14 12.3 17.6 9.7- 71.5- 3.0 1.7---- 0.0------------
1959-09-13 17.4 25.2 11.6- 60.8- 1.0 1.7---- 0.0------------
1959-09-12 15.3 23.6 10.0- 70.3- 0.0 0.3---- 0.0------------
1959-09-11 15.2 21.3 9.5- 68.3- 1.0 1.3---- 0.0------------
1959-09-10 14.2 22.0 8.8- 77.0- 1.0 1.7---- 0.0------------
1959-09-09 13.2 19.3 10.5- 80.3- 4.3 1.7---- 0.0------------
1959-09-08 13.0 18.6 8.5- 76.8- 4.0 1.0---- 0.0------------
1959-09-07 11.3 16.6 7.5- 85.0- 6.3 1.3---- 0.0------------
1959-09-06 10.8 17.9 7.2- 85.5- 5.7 1.0---- 0.0------------
1959-09-05 12.4 18.9 7.3- 79.3- 2.3 2.3---- 1.0------------
1959-09-04 12.7 19.1 6.2- 75.5- 2.7 1.0---- 0.0------------
1959-09-03 12.3 18.8 5.7- 78.3- 1.7 1.7---- 0.0------------
1959-09-02 10.1 15.8 5.2- 81.3- 3.7 1.3---- 0.0------------
1959-09-01 10.5 15.1 6.0- 83.8- 3.3 1.7---- 0.0------------
1959-08-31 11.6 14.6 4.5- 71.0- 5.3 1.3---- 0.0------------
1959-08-30 9.8 13.8 6.7- 72.8- 2.7 3.0---- 0.0------------
1959-08-29 11.8 15.3 7.5- 63.5- 4.0 1.7---- 0.0------------
1959-08-28 14.0 19.6 10.6- 71.5- 6.0 1.3---- 0.2------------
1959-08-27 14.1 20.8 11.0- 60.8- 2.3 5.3---- 0.0------------
1959-08-26 20.7 23.6 14.0- 72.5- 5.3 4.3---- 0.0------------
1959-08-25 21.4 25.6 15.5- 71.5- 3.3 2.0---- 0.0------------
1959-08-24 21.3 28.1 15.8- 67.5- 1.7 1.0---- 0.0------------
1959-08-23 20.0 27.1 14.1- 71.3- 0.7 0.7---- 0.0------------
1959-08-22 19.4 26.1 13.0- 67.3- 0.7 1.0---- 0.0------------
1959-08-21 18.4 25.6 12.0- 73.5- 0.0 2.0---- 0.0------------
1959-08-20 17.2 24.1 11.5- 79.8- 1.0 1.3---- 0.0------------
1959-08-19 16.7 23.1 11.5- 79.5- 1.3 1.0---- 0.0------------
1959-08-18 17.1 22.5 11.2- 86.0- 1.7 0.7---- 1.6------------
1959-08-17 14.3 16.8 11.0- 94.8- 7.7 1.0---- 0.8------------
1959-08-16 13.9 17.6 11.5- 93.0- 8.0 1.3---- 32.5------------
1959-08-15 18.8 23.6 16.5- 88.8- 5.3 0.7---- 0.0------------
1959-08-14 17.8 22.4 13.7- 92.3- 4.3 1.0---- 11.0------------
1959-08-13 18.8 22.3 14.4- 89.5- 7.0 1.0---- 0.0------------
1959-08-12 17.4 21.1 15.0- 92.3- 8.0 0.7---- 3.7------------
184.0 ms

 

Źródłem pochodzenia danych jest Instytut Meteorologii i Gospodarki Wodnej – Państwowy Instytut Badawczy. Dane Instytutu Meteorologii i Gospodarki Wodnej – Państwowego Instytutu Badawczego zostały przetworzone.

Dane źródłowe można odnaleźć na stronie https://dane.imgw.pl